Time;durP1;ratioP1;P1;durP2;ratioP2;P2;SDS_P1;SDS_P2;PMS_P1;PMS_P2;Temp;Humidity;BMP_temperature;BMP_pressure;BME280_temperature;BME280_humidity;BME280_pressure;Samples;Min_cycle;Max_cycle;Signal;HPM_P1;HPM_P2
2022/06/21 00:00:40;;;;;;;1.50;1.40;;;16.00;99.90;;;;;;6047073;23;20855;-86
2022/06/21 00:03:10;;;;;;;1.60;1.50;;;15.90;99.90;;;;;;6052970;23;20471;-86
2022/06/21 00:05:42;;;;;;;1.70;1.50;;;16.00;99.90;;;;;;6054232;23;20518;-86
2022/06/21 00:08:15;;;;;;;2.10;1.80;;;15.90;99.90;;;;;;6056400;23;20462;-86
2022/06/21 00:10:43;;;;;;;2.00;1.63;;;15.90;99.90;;;;;;6044547;23;20478;-86
2022/06/21 00:13:13;;;;;;;1.80;1.30;;;15.80;99.90;;;;;;6054735;23;20459;-86
2022/06/21 00:15:41;;;;;;;1.60;1.50;;;15.70;99.90;;;;;;6060439;23;20440;-85
2022/06/21 00:18:12;;;;;;;1.30;1.20;;;15.70;99.90;;;;;;6052593;23;20439;-86
2022/06/21 00:20:41;;;;;;;1.40;1.30;;;15.60;99.90;;;;;;6053076;23;20464;-85
2022/06/21 00:23:13;;;;;;;1.63;1.53;;;15.60;99.90;;;;;;6052814;23;20447;-86
2022/06/21 00:25:40;;;;;;;1.73;1.47;;;15.60;99.90;;;;;;6049740;23;20934;-86
2022/06/21 00:28:07;;;;;;;1.60;1.40;;;15.70;99.90;;;;;;6041350;23;20498;-86
2022/06/21 00:30:34;;;;;;;1.60;1.50;;;15.70;99.90;;;;;;6053620;23;20459;-85
2022/06/21 00:33:02;;;;;;;1.60;1.50;;;15.60;99.90;;;;;;6057892;23;20495;-86
2022/06/21 00:35:29;;;;;;;2.10;1.70;;;15.60;99.90;;;;;;6036267;23;20452;-86
2022/06/21 00:37:57;;;;;;;1.63;1.40;;;15.60;99.90;;;;;;6041416;23;20448;-86
2022/06/21 00:40:29;;;;;;;1.53;1.43;;;15.60;99.90;;;;;;6046618;23;20459;-86
2022/06/21 00:43:02;;;;;;;1.60;1.50;;;15.60;99.90;;;;;;6056178;23;20443;-85
2022/06/21 00:45:33;;;;;;;2.20;2.00;;;15.60;99.90;;;;;;6057532;23;20501;-85
2022/06/21 00:48:09;;;;;;;2.13;1.60;;;15.60;99.90;;;;;;6045372;23;20788;-85
2022/06/21 00:50:40;;;;;;;1.30;1.20;;;15.50;99.90;;;;;;6052641;23;20811;-85
2022/06/21 00:53:15;;;;;;;1.67;1.40;;;15.50;99.90;;;;;;6048265;23;20456;-85
2022/06/21 00:55:50;;;;;;;1.70;1.60;;;15.40;99.90;;;;;;6048358;23;20443;-86
2022/06/21 00:58:19;;;;;;;1.67;1.57;;;15.40;99.90;;;;;;6063466;23;20485;-86
2022/06/21 01:00:55;;;;;;;2.07;1.70;;;15.50;99.90;;;;;;6060893;23;20455;-85
2022/06/21 01:03:27;;;;;;;1.50;1.40;;;15.40;99.90;;;;;;6059063;23;20439;-86
2022/06/21 01:05:57;;;;;;;1.83;1.73;;;15.40;99.90;;;;;;6046275;23;20445;-86
2022/06/21 01:08:30;;;;;;;1.50;1.40;;;15.40;99.90;;;;;;6055664;23;20467;-86
2022/06/21 01:11:04;;;;;;;1.50;1.40;;;15.40;99.90;;;;;;6066934;23;20548;-86
2022/06/21 01:13:35;;;;;;;2.27;2.00;;;15.30;99.90;;;;;;6045335;23;20456;-86
2022/06/21 01:16:02;;;;;;;1.70;1.60;;;15.30;99.90;;;;;;6053031;23;20439;-86
2022/06/21 01:18:30;;;;;;;1.60;1.50;;;15.30;99.90;;;;;;6035414;23;20440;-85
2022/06/21 01:20:59;;;;;;;1.73;1.63;;;15.30;99.90;;;;;;6048384;23;20541;-86
2022/06/21 01:23:49;;;;;;;1.97;1.40;;;15.30;99.90;;;;;;6053984;23;20521;-86
2022/06/21 01:26:48;;;;;;;1.67;1.37;;;15.30;99.90;;;;;;6064646;23;20436;-86
2022/06/21 01:29:20;;;;;;;2.47;1.40;;;15.20;99.90;;;;;;6042260;23;21286;-85
2022/06/21 01:31:48;;;;;;;2.40;1.40;;;15.20;99.90;;;;;;6059825;23;20964;-86
2022/06/21 01:34:18;;;;;;;2.60;1.50;;;15.20;99.90;;;;;;6044085;23;20791;-85
2022/06/21 01:36:47;;;;;;;1.60;1.50;;;15.10;99.90;;;;;;6052280;23;20981;-86
2022/06/21 01:39:23;;;;;;;2.13;1.70;;;15.00;99.90;;;;;;6074681;23;20988;-85
2022/06/21 01:41:54;;;;;;;1.90;1.40;;;14.90;99.90;;;;;;6050428;23;20823;-85
2022/06/21 01:44:26;;;;;;;1.70;1.40;;;14.80;99.90;;;;;;6054118;23;20438;-85
2022/06/21 01:46:54;;;;;;;1.70;1.60;;;14.70;99.90;;;;;;6052132;23;20431;-85
2022/06/21 01:49:24;;;;;;;1.90;1.80;;;14.70;99.90;;;;;;6061782;23;20448;-86
2022/06/21 01:51:56;;;;;;;2.10;1.73;;;14.70;99.90;;;;;;6054528;23;20526;-86
2022/06/21 01:54:26;;;;;;;2.57;1.70;;;14.70;99.90;;;;;;6049352;23;20802;-86
2022/06/21 01:56:54;;;;;;;2.27;1.90;;;14.70;99.90;;;;;;6051523;23;20445;-86
2022/06/21 01:59:26;;;;;;;1.70;1.60;;;14.70;99.90;;;;;;6041068;23;20541;-85
2022/06/21 02:01:59;;;;;;;2.50;1.43;;;14.70;99.90;;;;;;6055216;23;21103;-85
2022/06/21 02:04:29;;;;;;;1.90;1.65;;;14.70;99.90;;;;;;6056226;23;20514;-86
2022/06/21 02:07:02;;;;;;;1.70;1.60;;;14.70;99.90;;;;;;6050512;23;20203;-86
2022/06/21 02:09:35;;;;;;;1.80;1.70;;;14.70;99.90;;;;;;6052025;23;20471;-86
2022/06/21 02:12:07;;;;;;;2.57;1.60;;;14.70;99.90;;;;;;6057587;23;20432;-86
2022/06/21 02:14:39;;;;;;;2.77;1.83;;;14.70;99.90;;;;;;6063182;23;20459;-86
2022/06/21 02:17:15;;;;;;;2.03;1.73;;;14.70;99.90;;;;;;6076263;23;20416;-85
2022/06/21 02:19:47;;;;;;;4.07;1.80;;;14.70;99.90;;;;;;6071707;23;20542;-85
2022/06/21 02:22:17;;;;;;;1.53;1.40;;;14.70;99.90;;;;;;6064239;23;20446;-85
2022/06/21 02:24:45;;;;;;;2.50;1.70;;;14.70;99.90;;;;;;6043005;23;20890;-86
2022/06/21 02:27:17;;;;;;;1.93;1.70;;;14.70;99.90;;;;;;6049649;23;20451;-86
2022/06/21 02:29:48;;;;;;;1.80;1.70;;;14.70;99.90;;;;;;6065874;22;21199;-86
2022/06/21 02:32:26;;;;;;;2.10;1.90;;;14.70;99.90;;;;;;6059080;23;20458;-86
2022/06/21 02:34:58;;;;;;;1.60;1.50;;;14.70;99.90;;;;;;6059908;23;20879;-86
2022/06/21 02:37:28;;;;;;;2.43;1.90;;;14.70;99.90;;;;;;6058952;23;20447;-86
2022/06/21 02:39:56;;;;;;;2.57;1.63;;;14.80;99.90;;;;;;6079054;23;20450;-86
2022/06/21 02:42:30;;;;;;;2.03;1.83;;;14.70;99.90;;;;;;6071358;23;20768;-86
2022/06/21 02:45:02;;;;;;;2.20;1.60;;;14.70;99.90;;;;;;6067363;23;20442;-86
2022/06/21 02:47:33;;;;;;;2.00;1.90;;;14.70;99.90;;;;;;6076480;23;20451;-86
2022/06/21 02:50:05;;;;;;;2.60;1.73;;;14.70;99.90;;;;;;6060691;23;20463;-86
2022/06/21 02:52:36;;;;;;;4.43;2.00;;;14.70;99.90;;;;;;6061713;23;20439;-86
2022/06/21 02:55:27;;;;;;;2.80;1.87;;;14.80;99.90;;;;;;6083091;23;20480;-86
2022/06/21 02:58:01;;;;;;;1.70;1.60;;;14.80;99.90;;;;;;6073705;23;20906;-86
2022/06/21 03:00:28;;;;;;;2.87;2.10;;;14.80;99.90;;;;;;6070206;23;20803;-86
2022/06/21 03:02:58;;;;;;;2.57;2.37;;;14.70;99.90;;;;;;6070744;23;20483;-86
2022/06/21 03:05:28;;;;;;;1.63;1.53;;;14.70;99.90;;;;;;6058885;23;20479;-86
2022/06/21 03:07:58;;;;;;;1.80;1.70;;;14.70;99.90;;;;;;6077586;23;20422;-86
2022/06/21 03:10:29;;;;;;;1.63;1.53;;;14.70;99.90;;;;;;6060760;23;20475;-87
2022/06/21 03:13:02;;;;;;;1.90;1.70;;;14.60;99.90;;;;;;6081471;23;20435;-87
2022/06/21 03:15:29;;;;;;;2.17;1.90;;;14.80;99.90;;;;;;6060875;23;20447;-86
2022/06/21 03:18:02;;;;;;;1.70;1.60;;;14.60;99.90;;;;;;6050392;23;20506;-86
2022/06/21 03:20:32;;;;;;;2.37;1.77;;;14.60;99.90;;;;;;6055670;23;20521;-86
2022/06/21 03:22:59;;;;;;;1.90;1.80;;;14.40;99.90;;;;;;6065965;23;20451;-86
2022/06/21 03:25:32;;;;;;;2.00;1.83;;;14.30;99.90;;;;;;6078744;23;20515;-86
2022/06/21 03:28:02;;;;;;;2.20;2.00;;;14.30;99.90;;;;;;6082297;23;20430;-86
2022/06/21 03:30:32;;;;;;;2.50;2.30;;;14.20;99.90;;;;;;6076887;23;20833;-86
2022/06/21 03:33:01;;;;;;;2.73;2.20;;;14.20;99.90;;;;;;6068297;23;20490;-86
2022/06/21 03:35:32;;;;;;;2.30;1.87;;;14.10;99.90;;;;;;6061752;23;20454;-87
2022/06/21 03:37:59;;;;;;;2.13;1.90;;;14.10;99.90;;;;;;6062673;23;20435;-87
2022/06/21 03:43:17;;;;;;;2.40;2.20;;;14.10;99.90;;;;;;6069462;23;20434;-85
2022/06/21 03:45:46;;;;;;;2.07;1.90;;;14.00;99.90;;;;;;6051884;23;20212;-87
2022/06/21 03:48:18;;;;;;;2.60;2.03;;;14.10;99.90;;;;;;6061128;23;21011;-88
2022/06/21 03:50:53;;;;;;;2.80;2.00;;;14.00;99.90;;;;;;6063875;23;20504;-86
2022/06/21 03:53:24;;;;;;;2.78;1.90;;;14.10;99.90;;;;;;6064238;23;20447;-86
2022/06/21 03:55:56;;;;;;;4.23;2.40;;;14.00;99.90;;;;;;6056874;23;20204;-84
2022/06/21 03:58:29;;;;;;;2.83;2.00;;;14.10;99.90;;;;;;6064258;23;20448;-83
2022/06/21 04:01:07;;;;;;;2.67;2.47;;;14.20;99.90;;;;;;6060358;23;20989;-83
2022/06/21 04:03:39;;;;;;;2.87;2.30;;;14.30;99.90;;;;;;6066783;23;20441;-83
2022/06/21 04:06:11;;;;;;;2.47;1.90;;;14.50;99.90;;;;;;6067097;23;20549;-84
2022/06/21 04:08:44;;;;;;;2.33;1.90;;;14.40;99.90;;;;;;6066166;23;20468;-84
2022/06/21 04:11:17;;;;;;;4.47;2.13;;;14.40;99.90;;;;;;6059864;23;20446;-86
2022/06/21 04:13:51;;;;;;;2.40;2.03;;;14.40;99.90;;;;;;6061682;23;20772;-83
2022/06/21 04:16:25;;;;;;;1.80;1.70;;;14.50;99.90;;;;;;6065495;23;20513;-83
2022/06/21 04:19:00;;;;;;;2.33;1.70;;;14.50;99.90;;;;;;6059538;23;20486;-83
2022/06/21 04:21:36;;;;;;;1.80;1.70;;;14.60;99.90;;;;;;6071425;23;20441;-83
2022/06/21 04:24:12;;;;;;;2.37;2.17;;;14.70;99.90;;;;;;6056902;23;20447;-84
2022/06/21 04:26:46;;;;;;;2.83;2.00;;;14.80;99.90;;;;;;6056951;23;20452;-84
2022/06/21 04:29:21;;;;;;;2.07;1.97;;;14.90;99.90;;;;;;6075408;23;20482;-84
2022/06/21 04:31:56;;;;;;;2.00;1.80;;;15.00;99.90;;;;;;6067491;23;20859;-86
2022/06/21 04:34:28;;;;;;;1.93;1.80;;;15.10;99.90;;;;;;6065342;23;20454;-80
2022/06/21 04:37:01;;;;;;;3.87;2.53;;;15.20;99.90;;;;;;6045649;23;20814;-84
2022/06/21 04:39:35;;;;;;;2.70;2.20;;;15.30;99.90;;;;;;6053632;23;20547;-84
2022/06/21 04:42:07;;;;;;;3.97;2.50;;;15.30;99.90;;;;;;6054297;23;20526;-85
2022/06/21 04:44:40;;;;;;;2.83;2.03;;;15.40;99.90;;;;;;6055822;23;20538;-87
2022/06/21 04:47:15;;;;;;;2.33;2.10;;;15.50;99.90;;;;;;6058080;23;20447;-83
2022/06/21 04:49:46;;;;;;;2.47;2.20;;;15.50;99.90;;;;;;6053414;23;20466;-85
2022/06/21 04:52:18;;;;;;;4.90;2.20;;;15.50;99.90;;;;;;6064519;23;20444;-84
2022/06/21 04:54:45;;;;;;;3.53;1.90;;;15.60;99.90;;;;;;6062343;23;20443;-84
2022/06/21 04:57:15;;;;;;;3.70;2.40;;;15.70;99.90;;;;;;6066842;23;20454;-84
2022/06/21 04:59:47;;;;;;;2.23;2.00;;;15.80;99.90;;;;;;6074971;23;20533;-84
2022/06/21 05:02:21;;;;;;;2.30;2.10;;;15.90;99.90;;;;;;6078477;23;20461;-83
2022/06/21 05:04:51;;;;;;;3.67;2.40;;;15.90;99.90;;;;;;6054678;23;20951;-83
2022/06/21 05:07:22;;;;;;;4.80;2.17;;;15.90;99.90;;;;;;6053272;23;20883;-81
2022/06/21 05:09:51;;;;;;;2.47;2.27;;;15.90;99.90;;;;;;6054079;23;20488;-81
2022/06/21 05:12:24;;;;;;;2.20;2.00;;;16.00;99.90;;;;;;6051666;23;20436;-80
2022/06/21 05:14:57;;;;;;;2.80;2.27;;;16.00;99.90;;;;;;6053667;23;20457;-80
2022/06/21 05:17:25;;;;;;;3.00;2.80;;;16.10;99.90;;;;;;6057389;23;20947;-80
2022/06/21 05:19:57;;;;;;;4.13;2.50;;;16.10;99.90;;;;;;6055278;23;20530;-81
2022/06/21 05:22:30;;;;;;;2.40;2.20;;;16.10;99.90;;;;;;6041450;23;20954;-80
2022/06/21 05:24:58;;;;;;;4.30;2.53;;;16.10;99.90;;;;;;6045535;23;20534;-81
2022/06/21 05:27:31;;;;;;;2.40;2.20;;;16.30;99.90;;;;;;6049348;23;20450;-83
2022/06/21 05:30:04;;;;;;;3.43;2.50;;;16.40;99.90;;;;;;6056294;23;20463;-81
2022/06/21 05:32:37;;;;;;;4.00;2.20;;;16.40;99.90;;;;;;6053959;23;21140;-81
2022/06/21 05:35:10;;;;;;;4.00;2.23;;;16.50;99.90;;;;;;6056386;23;20440;-81
2022/06/21 05:37:49;;;;;;;3.10;2.47;;;16.50;99.90;;;;;;6045842;23;20943;-81
2022/06/21 05:40:24;;;;;;;3.13;2.27;;;16.40;99.90;;;;;;6058100;23;20434;-81
2022/06/21 05:42:52;;;;;;;3.17;2.10;;;16.40;99.90;;;;;;6054688;23;20533;-81
2022/06/21 05:45:25;;;;;;;5.27;2.60;;;16.50;99.90;;;;;;6054968;23;20988;-81
2022/06/21 05:47:57;;;;;;;3.40;2.30;;;16.70;99.90;;;;;;6056636;23;20455;-81
2022/06/21 05:50:28;;;;;;;3.10;2.40;;;16.80;99.90;;;;;;6049098;23;20554;-82
2022/06/21 05:52:58;;;;;;;3.03;2.40;;;17.00;99.90;;;;;;6056346;23;20832;-82
2022/06/21 05:55:30;;;;;;;3.30;2.30;;;17.20;99.90;;;;;;6055887;23;20435;-82
2022/06/21 05:58:02;;;;;;;4.00;2.50;;;17.20;99.90;;;;;;6059194;23;20435;-80
2022/06/21 06:00:38;;;;;;;3.50;2.43;;;17.30;99.90;;;;;;6052871;23;20447;-81
2022/06/21 06:03:12;;;;;;;5.17;2.23;;;17.60;99.90;;;;;;6057239;23;20441;-81
2022/06/21 06:05:39;;;;;;;4.50;2.43;;;17.70;99.90;;;;;;6049426;23;20475;-81
2022/06/21 06:08:11;;;;;;;4.20;1.93;;;17.80;99.90;;;;;;6057138;23;20467;-81
2022/06/21 06:10:41;;;;;;;3.50;2.50;;;17.90;99.90;;;;;;6056679;23;20509;-80
2022/06/21 06:13:13;;;;;;;2.87;2.00;;;17.80;99.90;;;;;;6053907;23;20428;-77
2022/06/21 06:15:46;;;;;;;4.27;1.90;;;17.70;99.90;;;;;;6055810;23;20942;-83
2022/06/21 06:18:19;;;;;;;2.57;1.93;;;17.60;99.90;;;;;;6057047;23;20486;-82
2022/06/21 06:20:52;;;;;;;3.60;2.17;;;17.60;99.90;;;;;;6049626;23;20435;-81
2022/06/21 06:23:27;;;;;;;2.97;2.20;;;17.60;99.90;;;;;;6058264;23;20500;-81
2022/06/21 06:25:59;;;;;;;3.67;2.23;;;17.50;99.90;;;;;;6052971;23;20467;-81
2022/06/21 06:28:33;;;;;;;3.37;2.00;;;17.50;99.90;;;;;;6058290;23;20463;-81
2022/06/21 06:31:06;;;;;;;2.87;2.13;;;17.50;99.90;;;;;;6056105;23;20469;-81
2022/06/21 06:33:38;;;;;;;3.20;1.80;;;17.50;99.90;;;;;;6055550;23;20804;-81
2022/06/21 06:36:09;;;;;;;2.13;1.93;;;17.60;99.90;;;;;;6058838;23;20446;-81
2022/06/21 06:38:37;;;;;;;2.77;2.20;;;17.70;99.90;;;;;;6055025;23;20881;-81
2022/06/21 06:41:10;;;;;;;2.23;2.03;;;17.80;99.90;;;;;;6058757;23;20448;-81
2022/06/21 06:43:46;;;;;;;2.47;2.10;;;17.90;99.90;;;;;;6055873;23;20922;-81
2022/06/21 06:46:23;;;;;;;3.00;1.90;;;18.10;99.90;;;;;;6052173;23;20463;-80
2022/06/21 06:48:50;;;;;;;2.20;1.90;;;18.10;99.00;;;;;;6054988;23;20459;-80
2022/06/21 06:51:52;;;;;;;2.50;1.83;;;18.20;98.70;;;;;;6057391;23;20952;-81
2022/06/21 06:54:27;;;;;;;2.30;2.10;;;18.30;98.30;;;;;;6046955;23;20428;-81
2022/06/21 06:57:03;;;;;;;3.70;2.30;;;18.30;98.00;;;;;;6048847;23;20475;-81
2022/06/21 06:59:30;;;;;;;3.50;1.80;;;18.40;97.40;;;;;;6055610;23;20568;-81
2022/06/21 07:02:02;;;;;;;2.33;1.93;;;18.50;97.90;;;;;;6049027;23;20436;-81
2022/06/21 07:04:36;;;;;;;3.10;2.10;;;18.60;97.40;;;;;;6058362;23;20442;-81
2022/06/21 07:07:08;;;;;;;2.97;2.27;;;18.60;97.90;;;;;;6060086;23;20456;-80
2022/06/21 07:09:41;;;;;;;2.80;1.87;;;18.70;97.40;;;;;;6057612;23;20554;-81
2022/06/21 07:12:17;;;;;;;3.00;2.17;;;18.80;97.40;;;;;;6059249;23;20929;-81
2022/06/21 07:14:45;;;;;;;2.03;1.83;;;19.00;97.30;;;;;;6054203;23;20440;-81
2022/06/21 07:17:19;;;;;;;2.80;2.10;;;19.10;96.70;;;;;;6053240;23;20442;-81
2022/06/21 07:19:46;;;;;;;1.73;1.60;;;19.20;96.50;;;;;;6057460;23;20458;-81
2022/06/21 07:22:17;;;;;;;2.33;2.13;;;19.40;96.60;;;;;;6057004;23;20463;-81
2022/06/21 07:24:50;;;;;;;4.23;2.10;;;19.70;96.60;;;;;;6054719;23;20827;-81
2022/06/21 07:27:21;;;;;;;4.53;2.10;;;20.00;95.80;;;;;;6055555;23;20440;-81
2022/06/21 07:29:56;;;;;;;6.90;2.30;;;20.30;94.30;;;;;;6055952;23;20810;-81
2022/06/21 07:32:28;;;;;;;3.40;2.30;;;20.30;94.20;;;;;;6060140;23;21043;-81
2022/06/21 07:35:01;;;;;;;3.00;1.90;;;20.60;94.00;;;;;;6054238;23;20507;-81
2022/06/21 07:37:33;;;;;;;2.57;2.10;;;20.50;93.60;;;;;;6054275;23;20443;-81
2022/06/21 07:40:05;;;;;;;2.27;2.00;;;20.50;93.60;;;;;;6050667;23;20431;-81
2022/06/21 07:42:38;;;;;;;2.60;2.03;;;20.40;94.00;;;;;;6051588;23;20501;-81
2022/06/21 07:45:10;;;;;;;2.43;2.10;;;20.40;93.80;;;;;;6042515;23;20958;-81
2022/06/21 07:47:44;;;;;;;4.67;2.03;;;20.30;94.00;;;;;;6052852;23;20823;-82
2022/06/21 07:50:15;;;;;;;5.03;2.17;;;20.40;93.80;;;;;;6051703;23;20627;-81
2022/06/21 07:52:46;;;;;;;2.60;2.40;;;20.30;93.80;;;;;;6055133;23;20439;-81
2022/06/21 07:55:17;;;;;;;2.30;2.10;;;20.30;93.70;;;;;;6059467;23;20934;-81
2022/06/21 07:57:48;;;;;;;4.27;2.47;;;20.30;94.30;;;;;;6053083;23;20436;-81
2022/06/21 08:00:18;;;;;;;3.50;1.90;;;20.60;93.80;;;;;;6056841;23;20463;-81
2022/06/21 08:08:28;;;;;;;4.00;2.20;;;22.40;91.50;;;;;;6042250;23;20479;-81
2022/06/21 08:11:01;;;;;;;2.67;1.70;;;23.00;91.30;;;;;;6052703;23;20547;-81
2022/06/21 08:13:30;;;;;;;3.73;1.90;;;23.50;89.70;;;;;;6052226;23;20470;-81
2022/06/21 08:16:08;;;;;;;3.00;2.10;;;23.20;89.10;;;;;;6046189;23;20442;-81
2022/06/21 08:18:43;;;;;;;3.13;1.70;;;23.40;90.40;;;;;;6047618;23;20566;-81
2022/06/21 08:21:13;;;;;;;2.80;1.87;;;23.50;89.30;;;;;;6056834;23;20442;-81
2022/06/21 08:23:47;;;;;;;2.33;2.03;;;23.50;88.60;;;;;;6043621;23;20502;-82
2022/06/21 08:26:21;;;;;;;2.80;2.23;;;23.20;88.70;;;;;;6054994;23;20545;-81
2022/06/21 08:28:54;;;;;;;2.90;1.90;;;23.20;89.60;;;;;;6054019;23;20459;-81
2022/06/21 08:31:27;;;;;;;5.23;2.10;;;23.60;87.90;;;;;;6058299;23;20514;-81
2022/06/21 08:34:00;;;;;;;2.70;2.00;;;24.10;87.60;;;;;;6060560;23;20443;-81
2022/06/21 08:36:32;;;;;;;2.23;1.80;;;24.80;85.70;;;;;;6054361;23;20443;-81
2022/06/21 08:39:03;;;;;;;2.40;2.20;;;25.30;84.20;;;;;;6055978;23;20566;-80
2022/06/21 08:41:55;;;;;;;2.30;1.97;;;24.70;83.60;;;;;;6059149;23;20450;-81
2022/06/21 08:48:26;;;;;;;2.57;1.90;;;23.30;86.80;;;;;;6051627;23;20545;-80
2022/06/21 08:51:21;;;;;;;5.70;2.20;;;22.80;89.00;;;;;;6057444;23;20514;-81
2022/06/21 08:53:58;;;;;;;3.30;2.00;;;22.90;90.00;;;;;;6058316;23;20443;-81
2022/06/21 08:56:31;;;;;;;1.90;1.80;;;23.40;90.00;;;;;;6060734;23;20745;-81
2022/06/21 08:59:10;;;;;;;3.57;1.80;;;23.70;88.30;;;;;;6046363;23;20471;-81
2022/06/21 09:01:44;;;;;;;2.17;1.97;;;23.80;87.90;;;;;;6053693;23;20447;-81
2022/06/21 09:04:25;;;;;;;3.20;2.00;;;23.50;86.60;;;;;;6054586;23;20440;-82
2022/06/21 09:07:12;;;;;;;2.30;1.97;;;23.40;88.00;;;;;;6057730;23;20499;-82
2022/06/21 09:09:49;;;;;;;2.07;1.83;;;23.30;89.20;;;;;;6059161;23;20625;-81
2022/06/21 09:12:25;;;;;;;2.70;1.80;;;23.00;88.60;;;;;;6052930;23;20427;-81
2022/06/21 09:15:09;;;;;;;2.73;1.97;;;22.60;89.10;;;;;;6054097;23;20470;-81
2022/06/21 09:17:44;;;;;;;2.43;2.00;;;22.40;90.30;;;;;;6059432;23;20459;-81
2022/06/21 09:20:21;;;;;;;2.30;2.10;;;22.50;90.90;;;;;;6056063;23;20544;-81
2022/06/21 09:23:05;;;;;;;2.27;2.07;;;22.80;90.10;;;;;;6045237;23;20427;-80
2022/06/21 09:25:43;;;;;;;2.53;2.33;;;22.70;90.30;;;;;;6056829;23;20447;-81
2022/06/21 09:28:22;;;;;;;2.60;2.07;;;22.60;90.80;;;;;;6059192;23;20470;-80
2022/06/21 09:30:58;;;;;;;2.50;2.07;;;22.30;90.80;;;;;;6045664;23;20526;-81
2022/06/21 09:33:34;;;;;;;5.47;2.10;;;22.40;90.40;;;;;;6059427;23;20435;-81
2022/06/21 09:36:07;;;;;;;3.20;2.17;;;22.90;90.80;;;;;;6050379;23;20446;-81
2022/06/21 09:38:45;;;;;;;2.30;2.10;;;23.70;90.50;;;;;;6060414;23;20517;-81
2022/06/21 09:41:21;;;;;;;2.93;2.40;;;23.90;87.00;;;;;;6054704;23;20442;-80
2022/06/21 09:44:03;;;;;;;2.93;2.20;;;24.00;88.50;;;;;;6054236;23;20443;-81
2022/06/21 09:46:38;;;;;;;2.47;1.97;;;23.90;88.60;;;;;;6050303;23;20471;-81
2022/06/21 09:49:16;;;;;;;3.73;2.60;;;24.40;87.50;;;;;;6057609;23;20547;-79
2022/06/21 09:51:51;;;;;;;2.83;2.00;;;24.90;87.10;;;;;;6052830;23;20886;-79
2022/06/21 09:54:32;;;;;;;4.20;2.17;;;25.60;85.20;;;;;;6055289;23;20435;-81
2022/06/21 09:57:12;;;;;;;3.60;2.13;;;26.10;86.20;;;;;;6059407;23;20435;-81
2022/06/21 09:59:48;;;;;;;3.40;2.63;;;26.10;83.40;;;;;;6054656;23;20442;-80
2022/06/21 10:02:22;;;;;;;2.30;2.10;;;26.30;82.70;;;;;;6058518;23;20511;-81
2022/06/21 10:04:59;;;;;;;3.97;2.50;;;26.40;82.50;;;;;;6057075;23;20439;-81
2022/06/21 10:07:34;;;;;;;2.30;2.10;;;26.40;80.80;;;;;;6058382;23;20885;-81
2022/06/21 10:10:14;;;;;;;2.20;2.00;;;26.40;80.50;;;;;;6058175;23;20466;-81
2022/06/21 10:12:49;;;;;;;2.60;2.17;;;26.40;80.60;;;;;;6056687;23;20479;-81
2022/06/21 10:15:36;;;;;;;2.30;2.10;;;26.20;82.20;;;;;;6047688;23;20881;-81
2022/06/21 10:18:52;;;;;;;3.33;2.37;;;26.30;82.40;;;;;;6053176;23;21000;-81
2022/06/21 10:21:35;;;;;;;3.40;2.20;;;26.10;80.90;;;;;;6027383;23;20755;-82
2022/06/21 10:24:30;;;;;;;3.40;2.50;;;26.00;80.60;;;;;;6056343;23;20471;-81
2022/06/21 10:27:21;;;;;;;3.10;2.17;;;26.20;81.50;;;;;;6051134;23;20533;-80
2022/06/21 10:30:26;;;;;;;3.13;2.33;;;26.70;80.30;;;;;;6047385;23;20439;-81
2022/06/21 10:33:18;;;;;;;2.57;2.37;;;26.90;81.10;;;;;;6038394;23;20441;-81
2022/06/21 10:36:08;;;;;;;3.07;2.23;;;26.90;81.20;;;;;;6057162;23;20435;-81
2022/06/21 10:38:57;;;;;;;2.20;2.00;;;27.00;79.90;;;;;;6051927;23;20469;-80
2022/06/21 10:41:36;;;;;;;2.30;2.10;;;27.10;80.40;;;;;;6048562;23;20446;-80
2022/06/21 10:44:23;;;;;;;3.03;2.73;;;27.00;80.90;;;;;;6046293;23;20439;-80
2022/06/21 10:46:59;;;;;;;2.50;2.30;;;26.90;80.10;;;;;;6057020;23;20954;-80
2022/06/21 10:49:42;;;;;;;3.60;2.27;;;26.80;80.60;;;;;;6045104;23;20463;-81
2022/06/21 10:52:24;;;;;;;2.70;2.43;;;27.10;81.20;;;;;;6055448;23;20470;-80
2022/06/21 10:55:26;;;;;;;2.93;2.23;;;27.70;79.50;;;;;;6059196;23;20442;-81
2022/06/21 10:58:02;;;;;;;3.07;2.73;;;27.60;78.50;;;;;;6047966;23;20463;-81
2022/06/21 11:03:59;;;;;;;3.83;2.30;;;27.80;79.50;;;;;;6050974;23;20532;-81
2022/06/21 11:06:40;;;;;;;2.43;2.23;;;27.80;78.50;;;;;;6057048;23;20467;-81
2022/06/21 11:09:14;;;;;;;3.07;2.30;;;28.40;78.00;;;;;;6056472;23;20530;-81
2022/06/21 11:11:50;;;;;;;4.20;3.10;;;29.00;78.30;;;;;;6051944;23;20967;-81
2022/06/21 11:14:29;;;;;;;3.20;2.83;;;29.40;77.30;;;;;;6056127;23;20435;-81
2022/06/21 11:17:10;;;;;;;3.13;2.60;;;29.50;75.80;;;;;;6060426;23;20493;-81
2022/06/21 11:19:47;;;;;;;3.77;3.40;;;29.30;75.60;;;;;;6050561;23;20432;-81
2022/06/21 11:22:34;;;;;;;2.80;2.60;;;29.30;76.20;;;;;;6058994;23;20435;-81
2022/06/21 11:25:12;;;;;;;2.97;2.77;;;29.50;78.10;;;;;;6055706;23;20907;-81
2022/06/21 11:27:54;;;;;;;3.17;2.87;;;29.20;76.70;;;;;;6059979;23;20478;-81
2022/06/21 11:30:32;;;;;;;3.80;2.87;;;29.20;77.10;;;;;;6061918;23;20938;-80
2022/06/21 11:33:08;;;;;;;3.23;2.87;;;29.10;75.50;;;;;;6058921;23;20443;-79
2022/06/21 11:35:41;;;;;;;2.90;2.60;;;28.60;77.90;;;;;;6044273;23;20466;-78
2022/06/21 11:38:46;;;;;;;3.70;3.37;;;28.40;78.50;;;;;;6050276;23;20462;-77
2022/06/21 11:44:12;;;;;;;4.00;3.30;;;28.00;81.30;;;;;;6053641;23;20855;-77
2022/06/21 11:46:45;;;;;;;3.07;2.87;;;27.70;81.50;;;;;;6065151;23;20759;-78
2022/06/21 11:49:34;;;;;;;3.40;3.10;;;27.60;81.80;;;;;;6061950;23;20462;-78
2022/06/21 11:52:26;;;;;;;2.97;2.77;;;27.30;81.70;;;;;;6070757;23;20439;-78
2022/06/21 11:55:00;;;;;;;3.53;3.23;;;27.20;82.50;;;;;;6063989;23;20450;-78
2022/06/21 11:57:38;;;;;;;3.07;2.87;;;27.40;81.50;;;;;;6047459;23;20526;-78
2022/06/21 12:00:12;;;;;;;3.70;3.40;;;27.50;82.50;;;;;;6057302;23;20447;-78
2022/06/21 12:02:44;;;;;;;3.70;3.40;;;27.70;83.40;;;;;;6070975;23;20442;-81
2022/06/21 12:05:25;;;;;;;4.10;3.70;;;27.80;82.40;;;;;;6066745;23;20437;-78
2022/06/21 12:07:58;;;;;;;3.13;2.93;;;28.30;82.20;;;;;;6068381;23;20490;-79
2022/06/21 12:10:35;;;;;;;3.13;2.90;;;29.20;81.10;;;;;;6051896;23;20444;-78
2022/06/21 12:13:13;;;;;;;3.33;3.03;;;29.20;78.70;;;;;;6066121;23;20439;-78
2022/06/21 12:15:57;;;;;;;3.43;3.10;;;29.00;79.20;;;;;;6068535;23;20525;-77
2022/06/21 12:18:27;;;;;;;4.57;3.00;;;29.10;81.00;;;;;;6050578;23;20574;-78
2022/06/21 12:21:03;;;;;;;3.33;3.07;;;28.70;80.20;;;;;;6050224;23;20435;-78
2022/06/21 12:23:41;;;;;;;3.30;2.97;;;28.30;81.90;;;;;;6057877;23;20443;-79
2022/06/21 12:26:12;;;;;;;3.40;3.10;;;28.10;81.80;;;;;;6052984;23;20431;-79
2022/06/21 12:28:40;;;;;;;3.40;3.17;;;27.90;83.30;;;;;;6051907;23;20468;-79
2022/06/21 12:31:16;;;;;;;3.70;3.07;;;27.70;83.40;;;;;;6052522;23;20436;-79
2022/06/21 12:33:47;;;;;;;3.27;3.07;;;27.50;83.00;;;;;;6057616;23;20457;-78
2022/06/21 12:36:42;;;;;;;3.90;3.60;;;27.60;84.20;;;;;;6053236;23;20514;-78
2022/06/21 12:39:17;;;;;;;3.80;3.50;;;27.80;84.60;;;;;;6053542;23;20527;-78
2022/06/21 12:41:59;;;;;;;3.63;3.20;;;28.00;83.10;;;;;;6052551;23;20530;-79
2022/06/21 12:44:38;;;;;;;3.33;3.00;;;27.90;83.10;;;;;;6052130;23;20443;-79
2022/06/21 12:47:21;;;;;;;3.23;2.83;;;28.00;84.40;;;;;;6052333;23;21111;-79
2022/06/21 12:50:27;;;;;;;4.87;2.70;;;28.90;82.90;;;;;;6052875;23;20528;-79
2022/06/21 12:53:07;;;;;;;3.23;2.90;;;30.00;80.70;;;;;;6051294;23;20457;-80
2022/06/21 12:55:45;;;;;;;3.50;3.20;;;30.90;77.10;;;;;;6048232;23;20463;-79
2022/06/21 12:58:27;;;;;;;3.30;3.10;;;31.30;75.70;;;;;;6054158;23;20474;-79
2022/06/21 13:00:56;;;;;;;6.37;3.80;;;31.50;75.60;;;;;;6050021;23;20450;-79
2022/06/21 13:03:49;;;;;;;3.93;3.57;;;32.10;75.70;;;;;;6038283;23;20439;-79
2022/06/21 13:06:40;;;;;;;4.33;3.50;;;31.90;75.00;;;;;;6047782;23;20435;-79
2022/06/21 13:09:29;;;;;;;3.60;3.30;;;33.10;74.10;;;;;;6050890;23;20478;-80
2022/06/21 13:12:36;;;;;;;4.33;3.53;;;35.20;70.40;;;;;;6049770;23;20434;-79
2022/06/21 13:15:35;;;;;;;3.70;3.13;;;35.80;66.40;;;;;;5941714;24;20478;-80
2022/06/21 13:18:33;;;;;;;4.03;3.20;;;36.30;63.50;;;;;;6048897;23;20503;-80
2022/06/21 13:21:12;;;;;;;3.40;3.10;;;38.30;60.50;;;;;;6052893;23;20493;-81
2022/06/21 13:23:54;;;;;;;3.77;3.40;;;39.60;56.70;;;;;;6061029;23;20454;-80
2022/06/21 13:26:49;;;;;;;3.40;3.07;;;40.90;54.00;;;;;;6050387;23;20439;-81
2022/06/21 13:29:23;;;;;;;5.17;3.20;;;41.30;51.90;;;;;;6058024;23;20443;-80
2022/06/21 13:31:53;;;;;;;3.23;2.63;;;42.40;49.80;;;;;;6060467;23;20795;-80
2022/06/21 13:34:30;;;;;;;3.50;3.20;;;43.30;48.00;;;;;;6056459;23;20513;-80
2022/06/21 13:37:01;;;;;;;3.83;3.03;;;43.00;46.70;;;;;;6059718;23;20451;-81
2022/06/21 13:39:40;;;;;;;5.00;3.50;;;43.50;46.60;;;;;;6052371;23;21030;-80
2022/06/21 13:45:04;;;;;;;3.50;3.20;;;41.50;47.00;;;;;;6053048;23;20438;-80
2022/06/21 13:47:33;;;;;;;3.43;3.10;;;40.40;48.30;;;;;;6055128;23;20550;-80
2022/06/21 13:50:12;;;;;;;3.43;3.13;;;38.90;49.60;;;;;;6046197;23;21185;-80